Airfield :
LOGIN :

Register | Disclaimer

   EN    FR    IT 

 










Legend :    VFR   Marginal VFR   IFR   Intensive IFR   Very Intensive IFR
Visi :
Ceiling :
>= 8 km
>= 3000ft
5 to 8 km
1000 to 3000 ft
1500m to 5 km
500 to 1000 ft
800 to 1500m
200 to 500 ft
< 800m
< 200 ft
Symbols :   Thunderstorms  Fog  Heavy snow  Heavy precipitations  Wind > 20 kt
SIGMETs :     Misc.  Thunderstorms  Icing  Turbulence  Mountain Waves  Volcanic Ashes






- Airport Elevation : 781 ft
- IATA code : SKP


LWSK - Skopje

CURRENT METAR :
  • 180600Z 00000KT 9999 RA SCT016 BKN043 OVC080 12/11 Q1016 NOSIG

EXPIRED METARs :
  • 180530Z 18005KT 150V220 9999 -RA SCT016 OVC063 13/11 Q1016 NOSIG
  • 180500Z 17006KT 9999 -DZ SCT016 OVC070 13/11 Q1016 NOSIG
  • 180430Z 20003KT 9999 SCT016 BKN043 OVC090 13/11 Q1016 NOSIG
  • 180400Z 16005KT 120V220 9999 -DZ SCT016 BKN043 OVC090 13/11 Q1016 NOSIG
  • 180330Z 16004KT 120V220 9999 -DZ SCT016 BKN080 13/11 Q1016 NOSIG

TAF TAF LWSK
Valid from the 18 at 03:00 until the 19 at 03:00 UTC


180230Z 1803/1903 VRB02KT 9999 SCT040 OVC080
TEMPO 1803/1814 16010KT
TEMPO 1804/1812 RA SCT025 OVC040



MET'MAP, your aeronautical weather chart ! - Copyright ORBIFLY December 2007 - Disclaimer

ORBIFLY MET'MAP TEAM :

Programming & Development : Alexandra Zaïnal
Concept & Development : Baudouin d'Aumeries
Co-Development & Prog : Marc-Olivier Méhu
Technical & hardware support : Manuel Goepfert

Contact : metmap@orbifly.com




SOURCES & CREDITS :

   NOAA